Herzlich willkommen!

Am freundlichen Bodensee-Flugplatz zwischen Schwarzwald, Rhein und Alpen.

Aktuelles

04.02.2020
Platz überschwemmt
Auf Grund der starken Regenfälle ist der Platz überschwemmt und voraussichtlich bis Donnerstag 27. Feb. per NOTAM geschlossen.
— Flugleitung EDTZ

Live am Platz

Die Bilder unserer Webcams werden alle 5 Minuten aktualisiert.

Sonnenaufgang:

06:12 UTC / 07:12 Lokal

Sonnenuntergang:

17:00 UTC / 18:00 Lokal

METAR (24.02.2020 22:20 UTC):

EDNY 242220Z AUTO 06002KT 9999 // NCD 06/05 Q1013
VFR

TAF (24.02.2020 17:00 UTC):

TAF EDNY 241700Z 2418/2518 23007KT 9999 SCT020 BECMG 2507/2509 25012KT TEMPO 2510/2515 25015G25KT TEMPO 2515/2518 SHRA BKN015TCU

Alle Angaben unverbindlich und ohne Gewähr. Zeiten genähert.

Für den Verkehrslandeplatz Konstanz werden keine offiziellen Wetterinformationen ausgegeben. Daher werden zur Orientierung Daten des nahegelegenen Flughafens Friedrichshafen dargestellt.

Flugwetterdaten zur Verfügung gestellt von wippich.aero.